sensor_id;sensor_type;location;lat;lon;timestamp;P1;durP1;ratioP1;P2;durP2;ratioP2
69358;SDS011;56520;49.066;8.660;2023-03-03T00:00:54;15.75;;;6.75;;
69358;SDS011;56520;49.066;8.660;2023-03-03T00:03:20;10.73;;;5.97;;
69358;SDS011;56520;49.066;8.660;2023-03-03T00:05:48;13.60;;;6.18;;
69358;SDS011;56520;49.066;8.660;2023-03-03T00:08:14;18.30;;;7.53;;
69358;SDS011;56520;49.066;8.660;2023-03-03T00:10:40;17.98;;;8.10;;
69358;SDS011;56520;49.066;8.660;2023-03-03T00:15:38;15.20;;;6.70;;
69358;SDS011;56520;49.066;8.660;2023-03-03T00:18:05;27.45;;;7.13;;
69358;SDS011;56520;49.066;8.660;2023-03-03T00:20:53;20.50;;;7.63;;
69358;SDS011;56520;49.066;8.660;2023-03-03T00:23:33;16.63;;;7.07;;
69358;SDS011;56520;49.066;8.660;2023-03-03T00:26:01;14.05;;;6.85;;
69358;SDS011;56520;49.066;8.660;2023-03-03T00:28:31;15.05;;;7.22;;
69358;SDS011;56520;49.066;8.660;2023-03-03T00:31:12;17.50;;;7.20;;
69358;SDS011;56520;49.066;8.660;2023-03-03T00:33:48;13.73;;;6.20;;
69358;SDS011;56520;49.066;8.660;2023-03-03T00:36:24;14.30;;;6.28;;
69358;SDS011;56520;49.066;8.660;2023-03-03T00:42:00;13.32;;;6.65;;
69358;SDS011;56520;49.066;8.660;2023-03-03T00:47:38;14.10;;;6.65;;
69358;SDS011;56520;49.066;8.660;2023-03-03T00:52:40;15.10;;;6.10;;
69358;SDS011;56520;49.066;8.660;2023-03-03T00:55:10;14.43;;;6.35;;
69358;SDS011;56520;49.066;8.660;2023-03-03T00:57:36;20.30;;;7.38;;
69358;SDS011;56520;49.066;8.660;2023-03-03T01:00:02;12.73;;;5.90;;
69358;SDS011;56520;49.066;8.660;2023-03-03T01:02:29;13.50;;;7.13;;
69358;SDS011;56520;49.066;8.660;2023-03-03T01:04:55;18.02;;;8.40;;
69358;SDS011;56520;49.066;8.660;2023-03-03T01:07:20;13.05;;;6.28;;
69358;SDS011;56520;49.066;8.660;2023-03-03T01:09:46;16.02;;;7.60;;
69358;SDS011;56520;49.066;8.660;2023-03-03T01:12:12;16.77;;;8.85;;
69358;SDS011;56520;49.066;8.660;2023-03-03T01:14:38;17.83;;;7.00;;
69358;SDS011;56520;49.066;8.660;2023-03-03T01:17:04;15.68;;;6.75;;
69358;SDS011;56520;49.066;8.660;2023-03-03T01:19:30;13.35;;;6.65;;
69358;SDS011;56520;49.066;8.660;2023-03-03T01:21:55;13.63;;;6.00;;
69358;SDS011;56520;49.066;8.660;2023-03-03T01:24:21;11.68;;;5.00;;
69358;SDS011;56520;49.066;8.660;2023-03-03T01:26:48;14.75;;;6.72;;
69358;SDS011;56520;49.066;8.660;2023-03-03T01:29:13;13.82;;;5.57;;
69358;SDS011;56520;49.066;8.660;2023-03-03T01:31:39;12.18;;;5.90;;
69358;SDS011;56520;49.066;8.660;2023-03-03T01:34:04;16.98;;;7.53;;
69358;SDS011;56520;49.066;8.660;2023-03-03T01:36:31;13.82;;;6.30;;
69358;SDS011;56520;49.066;8.660;2023-03-03T01:38:57;15.27;;;6.05;;
69358;SDS011;56520;49.066;8.660;2023-03-03T01:41:22;13.23;;;6.75;;
69358;SDS011;56520;49.066;8.660;2023-03-03T01:43:53;11.88;;;6.13;;
69358;SDS011;56520;49.066;8.660;2023-03-03T01:49:02;13.07;;;6.72;;
69358;SDS011;56520;49.066;8.660;2023-03-03T01:51:44;14.15;;;7.10;;
69358;SDS011;56520;49.066;8.660;2023-03-03T01:54:19;17.00;;;6.88;;
69358;SDS011;56520;49.066;8.660;2023-03-03T01:56:49;16.65;;;6.47;;
69358;SDS011;56520;49.066;8.660;2023-03-03T01:59:18;16.48;;;6.53;;
69358;SDS011;56520;49.066;8.660;2023-03-03T02:01:47;16.33;;;7.03;;
69358;SDS011;56520;49.066;8.660;2023-03-03T02:04:13;13.63;;;6.72;;
69358;SDS011;56520;49.066;8.660;2023-03-03T02:11:48;10.85;;;5.65;;
69358;SDS011;56520;49.066;8.660;2023-03-03T02:14:16;12.75;;;6.80;;
69358;SDS011;56520;49.066;8.660;2023-03-03T02:16:42;14.70;;;6.35;;
69358;SDS011;56520;49.066;8.660;2023-03-03T02:19:12;13.63;;;7.22;;
69358;SDS011;56520;49.066;8.660;2023-03-03T02:21:48;12.45;;;5.97;;
69358;SDS011;56520;49.066;8.660;2023-03-03T02:24:16;13.00;;;6.30;;
69358;SDS011;56520;49.066;8.660;2023-03-03T02:26:52;14.52;;;6.18;;
69358;SDS011;56520;49.066;8.660;2023-03-03T02:29:21;13.65;;;5.40;;
69358;SDS011;56520;49.066;8.660;2023-03-03T02:31:46;10.48;;;5.20;;
69358;SDS011;56520;49.066;8.660;2023-03-03T02:34:13;14.23;;;5.55;;
69358;SDS011;56520;49.066;8.660;2023-03-03T02:36:39;12.18;;;5.72;;
69358;SDS011;56520;49.066;8.660;2023-03-03T02:39:13;12.43;;;5.90;;
69358;SDS011;56520;49.066;8.660;2023-03-03T02:44:18;11.30;;;5.90;;
69358;SDS011;56520;49.066;8.660;2023-03-03T02:46:46;10.15;;;5.70;;
69358;SDS011;56520;49.066;8.660;2023-03-03T02:49:14;11.25;;;4.95;;
69358;SDS011;56520;49.066;8.660;2023-03-03T02:51:42;13.32;;;5.75;;
69358;SDS011;56520;49.066;8.660;2023-03-03T02:54:08;14.65;;;6.10;;
69358;SDS011;56520;49.066;8.660;2023-03-03T02:56:35;15.68;;;7.15;;
69358;SDS011;56520;49.066;8.660;2023-03-03T02:59:01;18.98;;;6.13;;
69358;SDS011;56520;49.066;8.660;2023-03-03T03:01:27;12.85;;;5.38;;
69358;SDS011;56520;49.066;8.660;2023-03-03T03:03:55;11.52;;;6.05;;
69358;SDS011;56520;49.066;8.660;2023-03-03T03:06:21;10.88;;;4.53;;
69358;SDS011;56520;49.066;8.660;2023-03-03T03:08:46;16.17;;;7.53;;
69358;SDS011;56520;49.066;8.660;2023-03-03T03:11:12;9.75;;;4.93;;
69358;SDS011;56520;49.066;8.660;2023-03-03T03:13:37;12.27;;;5.50;;
69358;SDS011;56520;49.066;8.660;2023-03-03T03:16:03;16.83;;;7.95;;
69358;SDS011;56520;49.066;8.660;2023-03-03T03:18:32;13.57;;;6.72;;
69358;SDS011;56520;49.066;8.660;2023-03-03T03:21:04;15.60;;;7.13;;
69358;SDS011;56520;49.066;8.660;2023-03-03T03:23:30;10.90;;;5.28;;
69358;SDS011;56520;49.066;8.660;2023-03-03T03:25:56;13.70;;;6.07;;
69358;SDS011;56520;49.066;8.660;2023-03-03T03:28:21;13.32;;;7.75;;
69358;SDS011;56520;49.066;8.660;2023-03-03T03:30:47;12.38;;;6.65;;
69358;SDS011;56520;49.066;8.660;2023-03-03T03:33:15;17.40;;;6.38;;
69358;SDS011;56520;49.066;8.660;2023-03-03T03:35:41;14.90;;;6.95;;
69358;SDS011;56520;49.066;8.660;2023-03-03T03:38:09;14.00;;;7.47;;
69358;SDS011;56520;49.066;8.660;2023-03-03T03:40:35;10.80;;;5.65;;
69358;SDS011;56520;49.066;8.660;2023-03-03T03:43:01;15.80;;;6.68;;
69358;SDS011;56520;49.066;8.660;2023-03-03T03:45:26;15.70;;;7.13;;
69358;SDS011;56520;49.066;8.660;2023-03-03T03:47:51;14.95;;;7.07;;
69358;SDS011;56520;49.066;8.660;2023-03-03T03:50:17;14.85;;;6.45;;
69358;SDS011;56520;49.066;8.660;2023-03-03T03:52:42;13.95;;;6.63;;
69358;SDS011;56520;49.066;8.660;2023-03-03T03:55:08;14.90;;;7.10;;
69358;SDS011;56520;49.066;8.660;2023-03-03T03:57:34;12.13;;;7.57;;
69358;SDS011;56520;49.066;8.660;2023-03-03T03:59:59;9.30;;;5.05;;
69358;SDS011;56520;49.066;8.660;2023-03-03T04:02:25;12.88;;;5.90;;
69358;SDS011;56520;49.066;8.660;2023-03-03T04:04:50;12.15;;;5.13;;
69358;SDS011;56520;49.066;8.660;2023-03-03T04:07:16;13.15;;;5.38;;
69358;SDS011;56520;49.066;8.660;2023-03-03T04:09:41;17.88;;;7.15;;
69358;SDS011;56520;49.066;8.660;2023-03-03T04:12:07;11.35;;;5.25;;
69358;SDS011;56520;49.066;8.660;2023-03-03T04:14:32;12.13;;;5.60;;
69358;SDS011;56520;49.066;8.660;2023-03-03T04:17:00;11.70;;;4.82;;
69358;SDS011;56520;49.066;8.660;2023-03-03T04:19:26;27.33;;;5.07;;
69358;SDS011;56520;49.066;8.660;2023-03-03T04:21:51;9.10;;;4.68;;
69358;SDS011;56520;49.066;8.660;2023-03-03T04:24:16;9.13;;;4.47;;
69358;SDS011;56520;49.066;8.660;2023-03-03T04:26:43;13.52;;;7.72;;
69358;SDS011;56520;49.066;8.660;2023-03-03T04:29:09;16.02;;;5.40;;
69358;SDS011;56520;49.066;8.660;2023-03-03T04:31:34;17.67;;;7.35;;
69358;SDS011;56520;49.066;8.660;2023-03-03T04:34:00;12.52;;;7.43;;
69358;SDS011;56520;49.066;8.660;2023-03-03T04:36:25;12.32;;;5.40;;
69358;SDS011;56520;49.066;8.660;2023-03-03T04:38:51;14.48;;;6.43;;
69358;SDS011;56520;49.066;8.660;2023-03-03T04:41:16;11.77;;;6.60;;
69358;SDS011;56520;49.066;8.660;2023-03-03T04:43:45;15.10;;;5.97;;
69358;SDS011;56520;49.066;8.660;2023-03-03T04:46:10;14.68;;;7.13;;
69358;SDS011;56520;49.066;8.660;2023-03-03T04:48:36;12.98;;;6.68;;
69358;SDS011;56520;49.066;8.660;2023-03-03T04:53:28;10.82;;;5.75;;
69358;SDS011;56520;49.066;8.660;2023-03-03T04:55:53;9.40;;;5.25;;
69358;SDS011;56520;49.066;8.660;2023-03-03T04:58:19;13.52;;;6.30;;
69358;SDS011;56520;49.066;8.660;2023-03-03T05:00:45;13.15;;;6.00;;
69358;SDS011;56520;49.066;8.660;2023-03-03T05:03:11;16.00;;;7.70;;
69358;SDS011;56520;49.066;8.660;2023-03-03T05:05:37;15.52;;;7.68;;
69358;SDS011;56520;49.066;8.660;2023-03-03T05:08:04;23.42;;;9.50;;
69358;SDS011;56520;49.066;8.660;2023-03-03T05:10:29;22.20;;;10.43;;
69358;SDS011;56520;49.066;8.660;2023-03-03T05:12:55;17.38;;;9.13;;
69358;SDS011;56520;49.066;8.660;2023-03-03T05:15:23;18.67;;;7.57;;
69358;SDS011;56520;49.066;8.660;2023-03-03T05:17:48;16.95;;;9.75;;
69358;SDS011;56520;49.066;8.660;2023-03-03T05:20:14;17.73;;;8.85;;
69358;SDS011;56520;49.066;8.660;2023-03-03T05:22:39;18.73;;;8.32;;
69358;SDS011;56520;49.066;8.660;2023-03-03T05:25:05;16.33;;;7.15;;
69358;SDS011;56520;49.066;8.660;2023-03-03T05:27:31;17.92;;;6.88;;
69358;SDS011;56520;49.066;8.660;2023-03-03T05:29:56;14.68;;;7.03;;
69358;SDS011;56520;49.066;8.660;2023-03-03T05:32:22;13.18;;;6.15;;
69358;SDS011;56520;49.066;8.660;2023-03-03T05:34:47;19.45;;;7.00;;
69358;SDS011;56520;49.066;8.660;2023-03-03T05:37:13;14.65;;;6.20;;
69358;SDS011;56520;49.066;8.660;2023-03-03T05:39:39;14.88;;;6.25;;
69358;SDS011;56520;49.066;8.660;2023-03-03T05:42:05;9.85;;;4.80;;
69358;SDS011;56520;49.066;8.660;2023-03-03T05:44:30;10.68;;;4.85;;
69358;SDS011;56520;49.066;8.660;2023-03-03T05:46:55;12.02;;;6.40;;
69358;SDS011;56520;49.066;8.660;2023-03-03T05:49:21;15.07;;;7.30;;
69358;SDS011;56520;49.066;8.660;2023-03-03T05:51:47;13.55;;;7.78;;
69358;SDS011;56520;49.066;8.660;2023-03-03T05:54:12;14.45;;;6.57;;
69358;SDS011;56520;49.066;8.660;2023-03-03T05:56:38;23.85;;;9.65;;
69358;SDS011;56520;49.066;8.660;2023-03-03T05:59:04;14.18;;;6.65;;
69358;SDS011;56520;49.066;8.660;2023-03-03T06:01:29;9.85;;;5.18;;
69358;SDS011;56520;49.066;8.660;2023-03-03T06:03:54;12.95;;;6.60;;
69358;SDS011;56520;49.066;8.660;2023-03-03T06:06:20;17.65;;;7.85;;
69358;SDS011;56520;49.066;8.660;2023-03-03T06:08:45;13.10;;;7.95;;
69358;SDS011;56520;49.066;8.660;2023-03-03T06:11:11;19.48;;;8.38;;
69358;SDS011;56520;49.066;8.660;2023-03-03T06:13:37;14.93;;;7.97;;
69358;SDS011;56520;49.066;8.660;2023-03-03T06:16:03;21.90;;;9.85;;
69358;SDS011;56520;49.066;8.660;2023-03-03T06:18:28;21.83;;;9.57;;
69358;SDS011;56520;49.066;8.660;2023-03-03T06:20:56;16.08;;;7.32;;
69358;SDS011;56520;49.066;8.660;2023-03-03T06:23:22;21.42;;;9.10;;
69358;SDS011;56520;49.066;8.660;2023-03-03T06:25:47;14.90;;;6.90;;
69358;SDS011;56520;49.066;8.660;2023-03-03T06:28:13;20.20;;;8.50;;
69358;SDS011;56520;49.066;8.660;2023-03-03T06:30:39;15.93;;;6.80;;
69358;SDS011;56520;49.066;8.660;2023-03-03T06:33:05;12.70;;;6.38;;
69358;SDS011;56520;49.066;8.660;2023-03-03T06:35:30;11.93;;;6.13;;
69358;SDS011;56520;49.066;8.660;2023-03-03T06:37:55;16.75;;;6.95;;
69358;SDS011;56520;49.066;8.660;2023-03-03T06:40:21;18.15;;;7.75;;
69358;SDS011;56520;49.066;8.660;2023-03-03T06:42:46;14.15;;;7.80;;
69358;SDS011;56520;49.066;8.660;2023-03-03T06:45:12;19.40;;;8.50;;
69358;SDS011;56520;49.066;8.660;2023-03-03T06:47:38;17.15;;;7.60;;
69358;SDS011;56520;49.066;8.660;2023-03-03T06:50:04;16.92;;;8.07;;
69358;SDS011;56520;49.066;8.660;2023-03-03T06:54:57;19.92;;;6.75;;
69358;SDS011;56520;49.066;8.660;2023-03-03T06:57:28;16.98;;;8.45;;
69358;SDS011;56520;49.066;8.660;2023-03-03T07:00:29;14.38;;;6.15;;
69358;SDS011;56520;49.066;8.660;2023-03-03T07:03:03;14.52;;;7.22;;
69358;SDS011;56520;49.066;8.660;2023-03-03T07:05:35;18.15;;;7.50;;
69358;SDS011;56520;49.066;8.660;2023-03-03T07:08:00;14.23;;;7.95;;
69358;SDS011;56520;49.066;8.660;2023-03-03T07:10:27;13.05;;;6.82;;
69358;SDS011;56520;49.066;8.660;2023-03-03T07:12:55;12.02;;;6.35;;
69358;SDS011;56520;49.066;8.660;2023-03-03T07:15:40;14.93;;;6.70;;
69358;SDS011;56520;49.066;8.660;2023-03-03T07:18:08;18.55;;;7.13;;
69358;SDS011;56520;49.066;8.660;2023-03-03T07:20:58;11.40;;;5.97;;
69358;SDS011;56520;49.066;8.660;2023-03-03T07:23:30;19.05;;;7.57;;
69358;SDS011;56520;49.066;8.660;2023-03-03T07:26:39;16.60;;;8.80;;
69358;SDS011;56520;49.066;8.660;2023-03-03T07:28:59;18.77;;;8.75;;
69358;SDS011;56520;49.066;8.660;2023-03-03T07:31:39;22.00;;;8.55;;
69358;SDS011;56520;49.066;8.660;2023-03-03T07:34:13;26.90;;;9.48;;
69358;SDS011;56520;49.066;8.660;2023-03-03T07:36:43;23.83;;;11.40;;
69358;SDS011;56520;49.066;8.660;2023-03-03T07:39:33;16.50;;;8.52;;
69358;SDS011;56520;49.066;8.660;2023-03-03T07:44:33;18.85;;;8.43;;
69358;SDS011;56520;49.066;8.660;2023-03-03T07:47:11;17.30;;;7.47;;
69358;SDS011;56520;49.066;8.660;2023-03-03T07:49:49;18.48;;;7.80;;
69358;SDS011;56520;49.066;8.660;2023-03-03T07:52:22;18.23;;;8.07;;
69358;SDS011;56520;49.066;8.660;2023-03-03T07:54:48;17.17;;;7.72;;
69358;SDS011;56520;49.066;8.660;2023-03-03T07:57:24;17.40;;;8.93;;
69358;SDS011;56520;49.066;8.660;2023-03-03T08:05:43;18.48;;;8.45;;
69358;SDS011;56520;49.066;8.660;2023-03-03T08:13:54;21.48;;;9.23;;
69358;SDS011;56520;49.066;8.660;2023-03-03T08:18:49;19.50;;;8.80;;
69358;SDS011;56520;49.066;8.660;2023-03-03T08:23:49;18.58;;;8.30;;
69358;SDS011;56520;49.066;8.660;2023-03-03T08:26:17;21.23;;;8.80;;
69358;SDS011;56520;49.066;8.660;2023-03-03T08:28:47;20.95;;;9.82;;
69358;SDS011;56520;49.066;8.660;2023-03-03T08:33:39;20.02;;;9.15;;
69358;SDS011;56520;49.066;8.660;2023-03-03T08:36:05;20.27;;;9.18;;
69358;SDS011;56520;49.066;8.660;2023-03-03T08:38:31;21.77;;;9.52;;
69358;SDS011;56520;49.066;8.660;2023-03-03T08:43:22;18.08;;;8.73;;
69358;SDS011;56520;49.066;8.660;2023-03-03T08:48:15;15.35;;;7.85;;
69358;SDS011;56520;49.066;8.660;2023-03-03T08:53:07;14.38;;;7.57;;
69358;SDS011;56520;49.066;8.660;2023-03-03T08:55:33;17.88;;;7.93;;
69358;SDS011;56520;49.066;8.660;2023-03-03T09:00:24;17.90;;;8.88;;
69358;SDS011;56520;49.066;8.660;2023-03-03T09:02:50;20.27;;;9.10;;
69358;SDS011;56520;49.066;8.660;2023-03-03T09:05:17;15.57;;;8.63;;
69358;SDS011;56520;49.066;8.660;2023-03-03T09:07:44;17.92;;;8.18;;
69358;SDS011;56520;49.066;8.660;2023-03-03T09:10:12;18.45;;;8.35;;
69358;SDS011;56520;49.066;8.660;2023-03-03T09:12:45;17.35;;;7.05;;
69358;SDS011;56520;49.066;8.660;2023-03-03T09:17:53;15.85;;;6.57;;
69358;SDS011;56520;49.066;8.660;2023-03-03T09:20:40;14.73;;;6.18;;
69358;SDS011;56520;49.066;8.660;2023-03-03T09:23:20;15.48;;;7.15;;
69358;SDS011;56520;49.066;8.660;2023-03-03T09:25:49;16.00;;;7.15;;
69358;SDS011;56520;49.066;8.660;2023-03-03T09:28:25;19.42;;;7.72;;
69358;SDS011;56520;49.066;8.660;2023-03-03T09:30:57;17.65;;;7.75;;
69358;SDS011;56520;49.066;8.660;2023-03-03T09:38:51;20.08;;;8.05;;
69358;SDS011;56520;49.066;8.660;2023-03-03T10:00:24;14.98;;;7.13;;
69358;SDS011;56520;49.066;8.660;2023-03-03T10:05:48;20.48;;;8.02;;
69358;SDS011;56520;49.066;8.660;2023-03-03T10:13:35;17.00;;;7.47;;
69358;SDS011;56520;49.066;8.660;2023-03-03T10:18:55;17.70;;;7.88;;
69358;SDS011;56520;49.066;8.660;2023-03-03T10:26:47;16.77;;;7.95;;
69358;SDS011;56520;49.066;8.660;2023-03-03T10:32:25;17.58;;;7.70;;
69358;SDS011;56520;49.066;8.660;2023-03-03T10:46:36;19.98;;;8.43;;
69358;SDS011;56520;49.066;8.660;2023-03-03T10:49:17;16.17;;;7.85;;
69358;SDS011;56520;49.066;8.660;2023-03-03T10:52:10;20.10;;;8.85;;
69358;SDS011;56520;49.066;8.660;2023-03-03T10:57:54;17.63;;;8.48;;
69358;SDS011;56520;49.066;8.660;2023-03-03T11:08:47;17.83;;;7.93;;
69358;SDS011;56520;49.066;8.660;2023-03-03T11:14:20;18.70;;;8.32;;
69358;SDS011;56520;49.066;8.660;2023-03-03T11:22:41;18.65;;;8.32;;
69358;SDS011;56520;49.066;8.660;2023-03-03T11:33:21;18.52;;;8.02;;
69358;SDS011;56520;49.066;8.660;2023-03-03T11:44:55;17.45;;;8.23;;
69358;SDS011;56520;49.066;8.660;2023-03-03T11:47:37;20.77;;;8.00;;
69358;SDS011;56520;49.066;8.660;2023-03-03T11:50:23;18.00;;;7.28;;
69358;SDS011;56520;49.066;8.660;2023-03-03T11:56:07;20.58;;;8.70;;
69358;SDS011;56520;49.066;8.660;2023-03-03T12:04:11;20.33;;;7.95;;
69358;SDS011;56520;49.066;8.660;2023-03-03T12:17:41;19.92;;;8.40;;
69358;SDS011;56520;49.066;8.660;2023-03-03T12:25:45;19.38;;;8.35;;
69358;SDS011;56520;49.066;8.660;2023-03-03T12:41:36;17.23;;;8.38;;
69358;SDS011;56520;49.066;8.660;2023-03-03T12:47:46;16.05;;;7.30;;
69358;SDS011;56520;49.066;8.660;2023-03-03T12:50:21;15.93;;;7.32;;
69358;SDS011;56520;49.066;8.660;2023-03-03T13:01:08;19.67;;;8.98;;
69358;SDS011;56520;49.066;8.660;2023-03-03T13:14:23;18.17;;;8.90;;
69358;SDS011;56520;49.066;8.660;2023-03-03T13:20:11;19.67;;;8.00;;
69358;SDS011;56520;49.066;8.660;2023-03-03T13:22:45;17.05;;;8.48;;
69358;SDS011;56520;49.066;8.660;2023-03-03T13:31:00;19.27;;;9.32;;
69358;SDS011;56520;49.066;8.660;2023-03-03T13:33:38;16.02;;;7.70;;
69358;SDS011;56520;49.066;8.660;2023-03-03T13:36:11;16.63;;;7.50;;
69358;SDS011;56520;49.066;8.660;2023-03-03T13:38:47;23.30;;;10.45;;
69358;SDS011;56520;49.066;8.660;2023-03-03T13:41:25;20.45;;;9.23;;
69358;SDS011;56520;49.066;8.660;2023-03-03T13:43:58;17.95;;;7.85;;
69358;SDS011;56520;49.066;8.660;2023-03-03T13:49:10;20.30;;;8.50;;
69358;SDS011;56520;49.066;8.660;2023-03-03T13:52:00;15.05;;;6.95;;
69358;SDS011;56520;49.066;8.660;2023-03-03T14:13:38;17.80;;;7.38;;
69358;SDS011;56520;49.066;8.660;2023-03-03T14:16:21;18.65;;;7.22;;
69358;SDS011;56520;49.066;8.660;2023-03-03T14:19:23;17.17;;;7.60;;
69358;SDS011;56520;49.066;8.660;2023-03-03T14:22:15;18.88;;;8.27;;
69358;SDS011;56520;49.066;8.660;2023-03-03T14:25:02;16.40;;;7.72;;
69358;SDS011;56520;49.066;8.660;2023-03-03T14:27:35;20.17;;;9.80;;
69358;SDS011;56520;49.066;8.660;2023-03-03T14:33:00;19.35;;;8.60;;
69358;SDS011;56520;49.066;8.660;2023-03-03T14:38:15;19.63;;;7.78;;
69358;SDS011;56520;49.066;8.660;2023-03-03T14:40:44;21.17;;;8.55;;
69358;SDS011;56520;49.066;8.660;2023-03-03T14:49:44;22.45;;;9.43;;
69358;SDS011;56520;49.066;8.660;2023-03-03T14:52:00;20.88;;;9.02;;
69358;SDS011;56520;49.066;8.660;2023-03-03T14:54:28;19.85;;;8.50;;
69358;SDS011;56520;49.066;8.660;2023-03-03T15:00:01;19.30;;;9.07;;
69358;SDS011;56520;49.066;8.660;2023-03-03T15:02:40;19.58;;;8.77;;
69358;SDS011;56520;49.066;8.660;2023-03-03T15:05:26;17.10;;;8.65;;
69358;SDS011;56520;49.066;8.660;2023-03-03T15:10:30;16.73;;;7.90;;
69358;SDS011;56520;49.066;8.660;2023-03-03T15:12:58;20.00;;;8.02;;
69358;SDS011;56520;49.066;8.660;2023-03-03T15:16:04;16.80;;;7.53;;
69358;SDS011;56520;49.066;8.660;2023-03-03T15:18:49;19.08;;;8.55;;
69358;SDS011;56520;49.066;8.660;2023-03-03T15:21:28;17.13;;;9.05;;
69358;SDS011;56520;49.066;8.660;2023-03-03T15:27:27;22.48;;;9.30;;
69358;SDS011;56520;49.066;8.660;2023-03-03T15:33:12;17.15;;;7.95;;
69358;SDS011;56520;49.066;8.660;2023-03-03T15:35:55;17.77;;;7.63;;
69358;SDS011;56520;49.066;8.660;2023-03-03T15:41:16;21.63;;;8.43;;
69358;SDS011;56520;49.066;8.660;2023-03-03T15:43:53;17.25;;;8.23;;
69358;SDS011;56520;49.066;8.660;2023-03-03T15:46:32;20.30;;;8.60;;
69358;SDS011;56520;49.066;8.660;2023-03-03T15:52:19;18.85;;;9.07;;
69358;SDS011;56520;49.066;8.660;2023-03-03T16:09:59;17.05;;;7.95;;
69358;SDS011;56520;49.066;8.660;2023-03-03T16:23:59;18.05;;;7.60;;
69358;SDS011;56520;49.066;8.660;2023-03-03T16:26:42;21.05;;;8.15;;
69358;SDS011;56520;49.066;8.660;2023-03-03T16:29:23;16.98;;;7.55;;
69358;SDS011;56520;49.066;8.660;2023-03-03T16:39:35;16.85;;;7.28;;
69358;SDS011;56520;49.066;8.660;2023-03-03T16:42:30;17.02;;;7.00;;
69358;SDS011;56520;49.066;8.660;2023-03-03T16:50:24;16.60;;;7.65;;
69358;SDS011;56520;49.066;8.660;2023-03-03T16:52:58;21.58;;;8.65;;
69358;SDS011;56520;49.066;8.660;2023-03-03T16:55:47;16.92;;;7.90;;
69358;SDS011;56520;49.066;8.660;2023-03-03T16:58:21;21.17;;;7.97;;
69358;SDS011;56520;49.066;8.660;2023-03-03T17:04:01;16.80;;;7.05;;
69358;SDS011;56520;49.066;8.660;2023-03-03T17:06:41;19.77;;;7.80;;
69358;SDS011;56520;49.066;8.660;2023-03-03T17:26:09;15.85;;;6.88;;
69358;SDS011;56520;49.066;8.660;2023-03-03T17:28:59;16.05;;;7.20;;
69358;SDS011;56520;49.066;8.660;2023-03-03T17:34:37;16.88;;;6.45;;
69358;SDS011;56520;49.066;8.660;2023-03-03T17:43:07;13.68;;;5.30;;
69358;SDS011;56520;49.066;8.660;2023-03-03T17:45:54;13.82;;;6.07;;
69358;SDS011;56520;49.066;8.660;2023-03-03T17:57:07;11.38;;;5.18;;
69358;SDS011;56520;49.066;8.660;2023-03-03T18:04:57;13.63;;;5.68;;
69358;SDS011;56520;49.066;8.660;2023-03-03T18:10:37;11.90;;;5.28;;
69358;SDS011;56520;49.066;8.660;2023-03-03T18:13:21;12.32;;;5.75;;
69358;SDS011;56520;49.066;8.660;2023-03-03T18:24:38;11.85;;;4.90;;
69358;SDS011;56520;49.066;8.660;2023-03-03T18:27:33;13.52;;;5.47;;
69358;SDS011;56520;49.066;8.660;2023-03-03T18:40:50;13.88;;;6.63;;
69358;SDS011;56520;49.066;8.660;2023-03-03T18:49:01;18.05;;;8.98;;
69358;SDS011;56520;49.066;8.660;2023-03-03T18:56:49;17.85;;;6.75;;
69358;SDS011;56520;49.066;8.660;2023-03-03T19:07:43;16.48;;;7.35;;
69358;SDS011;56520;49.066;8.660;2023-03-03T19:12:50;13.48;;;6.82;;
69358;SDS011;56520;49.066;8.660;2023-03-03T19:18:46;15.27;;;7.47;;
69358;SDS011;56520;49.066;8.660;2023-03-03T19:23:22;16.13;;;7.15;;
69358;SDS011;56520;49.066;8.660;2023-03-03T19:31:31;13.20;;;6.43;;
69358;SDS011;56520;49.066;8.660;2023-03-03T19:34:09;13.07;;;5.80;;
69358;SDS011;56520;49.066;8.660;2023-03-03T19:36:48;14.02;;;6.75;;
69358;SDS011;56520;49.066;8.660;2023-03-03T19:39:33;10.95;;;5.55;;
69358;SDS011;56520;49.066;8.660;2023-03-03T19:52:24;20.55;;;8.13;;
69358;SDS011;56520;49.066;8.660;2023-03-03T20:00:39;13.52;;;6.05;;
69358;SDS011;56520;49.066;8.660;2023-03-03T20:05:51;13.43;;;6.35;;
69358;SDS011;56520;49.066;8.660;2023-03-03T20:14:01;17.25;;;8.13;;
69358;SDS011;56520;49.066;8.660;2023-03-03T20:19:17;13.20;;;5.95;;
69358;SDS011;56520;49.066;8.660;2023-03-03T20:27:28;12.93;;;5.90;;
69358;SDS011;56520;49.066;8.660;2023-03-03T20:32:53;14.95;;;6.57;;
69358;SDS011;56520;49.066;8.660;2023-03-03T20:38:35;23.10;;;8.88;;
69358;SDS011;56520;49.066;8.660;2023-03-03T20:53:11;13.27;;;6.25;;
69358;SDS011;56520;49.066;8.660;2023-03-03T21:03:38;11.07;;;4.93;;
69358;SDS011;56520;49.066;8.660;2023-03-03T21:06:10;13.65;;;6.15;;
69358;SDS011;56520;49.066;8.660;2023-03-03T21:13:56;19.52;;;8.00;;
69358;SDS011;56520;49.066;8.660;2023-03-03T21:18:58;16.52;;;6.40;;
69358;SDS011;56520;49.066;8.660;2023-03-03T21:21:30;16.45;;;7.45;;
69358;SDS011;56520;49.066;8.660;2023-03-03T21:23:57;13.95;;;6.45;;
69358;SDS011;56520;49.066;8.660;2023-03-03T21:29:16;11.32;;;5.90;;
69358;SDS011;56520;49.066;8.660;2023-03-03T21:31:44;15.48;;;5.63;;
69358;SDS011;56520;49.066;8.660;2023-03-03T21:34:18;16.08;;;7.05;;
69358;SDS011;56520;49.066;8.660;2023-03-03T21:39:21;10.35;;;4.53;;
69358;SDS011;56520;49.066;8.660;2023-03-03T21:42:02;14.23;;;6.25;;
69358;SDS011;56520;49.066;8.660;2023-03-03T21:44:40;16.55;;;6.50;;
69358;SDS011;56520;49.066;8.660;2023-03-03T21:47:14;15.13;;;6.20;;
69358;SDS011;56520;49.066;8.660;2023-03-03T21:49:44;16.30;;;5.65;;
69358;SDS011;56520;49.066;8.660;2023-03-03T21:52:15;19.17;;;8.00;;
69358;SDS011;56520;49.066;8.660;2023-03-03T21:54:42;15.20;;;6.78;;
69358;SDS011;56520;49.066;8.660;2023-03-03T21:57:09;14.07;;;6.55;;
69358;SDS011;56520;49.066;8.660;2023-03-03T21:59:35;11.98;;;5.22;;
69358;SDS011;56520;49.066;8.660;2023-03-03T22:02:01;9.20;;;4.85;;
69358;SDS011;56520;49.066;8.660;2023-03-03T22:06:52;6.90;;;3.30;;
69358;SDS011;56520;49.066;8.660;2023-03-03T22:09:18;10.40;;;4.57;;
69358;SDS011;56520;49.066;8.660;2023-03-03T22:11:44;11.55;;;5.00;;
69358;SDS011;56520;49.066;8.660;2023-03-03T22:14:09;9.13;;;4.22;;
69358;SDS011;56520;49.066;8.660;2023-03-03T22:16:35;9.80;;;4.78;;
69358;SDS011;56520;49.066;8.660;2023-03-03T22:19:01;12.43;;;4.95;;
69358;SDS011;56520;49.066;8.660;2023-03-03T22:21:27;13.05;;;4.53;;
69358;SDS011;56520;49.066;8.660;2023-03-03T22:23:53;10.43;;;3.45;;
69358;SDS011;56520;49.066;8.660;2023-03-03T22:26:18;7.63;;;4.40;;
69358;SDS011;56520;49.066;8.660;2023-03-03T22:28:45;9.85;;;4.63;;
69358;SDS011;56520;49.066;8.660;2023-03-03T22:31:12;11.05;;;5.05;;
69358;SDS011;56520;49.066;8.660;2023-03-03T22:33:38;7.10;;;3.55;;
69358;SDS011;56520;49.066;8.660;2023-03-03T22:36:03;9.85;;;4.97;;
69358;SDS011;56520;49.066;8.660;2023-03-03T22:38:29;9.20;;;3.60;;
69358;SDS011;56520;49.066;8.660;2023-03-03T22:40:55;9.00;;;4.57;;
69358;SDS011;56520;49.066;8.660;2023-03-03T22:43:20;7.72;;;3.92;;
69358;SDS011;56520;49.066;8.660;2023-03-03T22:45:46;9.73;;;4.72;;
69358;SDS011;56520;49.066;8.660;2023-03-03T22:48:11;7.90;;;4.70;;
69358;SDS011;56520;49.066;8.660;2023-03-03T22:50:37;11.48;;;4.63;;
69358;SDS011;56520;49.066;8.660;2023-03-03T22:53:03;12.57;;;6.03;;
69358;SDS011;56520;49.066;8.660;2023-03-03T22:55:32;11.23;;;5.10;;
69358;SDS011;56520;49.066;8.660;2023-03-03T22:58:01;8.70;;;4.78;;
69358;SDS011;56520;49.066;8.660;2023-03-03T23:00:28;10.00;;;5.38;;
69358;SDS011;56520;49.066;8.660;2023-03-03T23:02:53;11.98;;;4.35;;